Time;durP1;ratioP1;P1;durP2;ratioP2;P2;SDS_P1;SDS_P2;PMS_P1;PMS_P2;Temp;Humidity;BMP_temperature;BMP_pressure;BME280_temperature;BME280_humidity;BME280_pressure;Samples;Min_cycle;Max_cycle;Signal;HPM_P1;HPM_P2
2020/12/09 00:01:09;;;;;;;29.40;14.40;;;;;;;;;;5101831;28;20035;-61
2020/12/09 00:03:35;;;;;;;30.83;13.98;;;;;;;;;;5102307;28;20047;-59
2020/12/09 00:06:01;;;;;;;27.85;13.23;;;;;;;;;;5083846;28;20032;-61
2020/12/09 00:08:27;;;;;;;29.40;14.05;;;;;;;;;;5082818;28;20044;-60
2020/12/09 00:10:53;;;;;;;26.45;13.35;;;;;;;;;;5089204;28;20040;-61
2020/12/09 00:13:19;;;;;;;28.13;12.88;;;;;;;;;;5103111;28;20104;-61
2020/12/09 00:15:45;;;;;;;24.58;11.90;;;;;;;;;;5087862;28;20043;-61
2020/12/09 00:18:11;;;;;;;29.70;12.35;;;;;;;;;;5090393;28;20040;-62
2020/12/09 00:20:37;;;;;;;25.88;12.32;;;;;;;;;;5071106;28;20075;-62
2020/12/09 00:23:03;;;;;;;25.48;12.20;;;;;;;;;;5070176;28;20094;-62
2020/12/09 00:25:28;;;;;;;31.90;13.75;;;;;;;;;;5069330;28;20124;-61
2020/12/09 00:27:54;;;;;;;33.03;14.05;;;;;;;;;;5087134;28;20036;-60
2020/12/09 00:30:22;;;;;;;25.30;11.30;;;;;;;;;;5088913;28;20144;-61
2020/12/09 00:32:48;;;;;;;28.95;12.88;;;;;;;;;;5073182;28;20041;-60
2020/12/09 00:35:14;;;;;;;24.58;10.98;;;;;;;;;;5069995;28;20037;-61
2020/12/09 00:37:40;;;;;;;25.08;12.10;;;;;;;;;;5069004;28;20049;-59
2020/12/09 00:40:07;;;;;;;24.42;11.70;;;;;;;;;;5067966;28;20032;-61
2020/12/09 00:42:33;;;;;;;26.55;12.73;;;;;;;;;;5068684;28;20074;-60
2020/12/09 00:44:59;;;;;;;27.60;13.18;;;;;;;;;;5069126;28;20501;-61
2020/12/09 00:47:25;;;;;;;23.67;10.95;;;;;;;;;;5080349;28;20442;-61
2020/12/09 00:52:36;;;;;;;22.40;11.05;;;;;;;;;;5089490;28;20052;-61
2020/12/09 00:55:02;;;;;;;23.52;11.80;;;;;;;;;;5089453;28;20039;-61
2020/12/09 00:57:28;;;;;;;25.77;11.88;;;;;;;;;;5085287;28;20036;-62
2020/12/09 00:59:54;;;;;;;26.08;12.07;;;;;;;;;;5068420;28;20036;-60
2020/12/09 01:02:20;;;;;;;27.70;13.25;;;;;;;;;;5073237;28;20032;-61
2020/12/09 01:04:49;;;;;;;26.20;11.45;;;;;;;;;;5088713;28;20143;-61
2020/12/09 01:07:16;;;;;;;26.10;12.00;;;;;;;;;;5088907;28;20035;-61
2020/12/09 01:09:42;;;;;;;26.42;12.85;;;;;;;;;;5088128;28;20091;-60
2020/12/09 01:12:08;;;;;;;25.15;12.40;;;;;;;;;;5083552;28;20036;-60
2020/12/09 01:14:33;;;;;;;29.50;11.82;;;;;;;;;;5088703;28;20399;-62
2020/12/09 01:17:02;;;;;;;27.48;12.25;;;;;;;;;;5085049;28;20040;-61
2020/12/09 01:19:28;;;;;;;26.42;12.52;;;;;;;;;;5088514;28;20051;-61
2020/12/09 01:21:54;;;;;;;24.20;11.23;;;;;;;;;;5087539;28;20040;-61
2020/12/09 01:24:20;;;;;;;24.40;11.38;;;;;;;;;;5072205;28;20032;-61
2020/12/09 01:26:47;;;;;;;22.08;11.15;;;;;;;;;;5075428;28;20147;-61
2020/12/09 01:29:14;;;;;;;24.70;11.35;;;;;;;;;;5088164;28;20036;-61
2020/12/09 01:31:40;;;;;;;25.08;12.15;;;;;;;;;;5087235;28;20036;-61
2020/12/09 01:34:05;;;;;;;24.10;11.50;;;;;;;;;;5077270;28;20050;-59
2020/12/09 01:36:32;;;;;;;22.17;11.30;;;;;;;;;;5068168;28;20440;-60
2020/12/09 01:38:58;;;;;;;23.77;11.25;;;;;;;;;;5067956;28;20036;-61
2020/12/09 01:41:24;;;;;;;22.60;11.50;;;;;;;;;;5067036;28;20049;-61
2020/12/09 01:43:51;;;;;;;23.40;11.55;;;;;;;;;;5068024;28;20129;-60
2020/12/09 01:46:28;;;;;;;25.38;11.43;;;;;;;;;;5076430;28;20036;-60
2020/12/09 01:48:54;;;;;;;24.30;10.88;;;;;;;;;;5088520;28;20085;-60
2020/12/09 01:51:21;;;;;;;22.92;11.27;;;;;;;;;;5076997;28;20033;-61
2020/12/09 01:53:47;;;;;;;25.00;12.18;;;;;;;;;;5070169;28;20045;-60
2020/12/09 01:56:13;;;;;;;25.85;11.43;;;;;;;;;;5087587;28;20036;-60
2020/12/09 01:58:39;;;;;;;22.83;11.05;;;;;;;;;;5074966;28;20882;-61
2020/12/09 02:01:05;;;;;;;25.00;11.18;;;;;;;;;;5066514;28;20133;-60
2020/12/09 02:03:31;;;;;;;23.73;11.05;;;;;;;;;;5070028;28;20106;-60
2020/12/09 02:05:57;;;;;;;23.40;11.40;;;;;;;;;;5069205;28;20049;-61
2020/12/09 02:08:23;;;;;;;25.83;11.23;;;;;;;;;;5067487;28;20050;-61
2020/12/09 02:10:59;;;;;;;22.08;10.95;;;;;;;;;;5066570;28;20032;-60
2020/12/09 02:13:25;;;;;;;19.90;10.87;;;;;;;;;;5068253;28;20036;-60
2020/12/09 02:15:51;;;;;;;22.50;10.45;;;;;;;;;;5083136;28;20089;-61
2020/12/09 02:18:17;;;;;;;21.48;10.60;;;;;;;;;;5087614;28;20040;-61
2020/12/09 02:20:43;;;;;;;28.52;12.57;;;;;;;;;;5086170;28;20038;-60
2020/12/09 02:23:09;;;;;;;23.83;11.55;;;;;;;;;;5087713;28;20395;-61
2020/12/09 02:25:35;;;;;;;26.52;11.48;;;;;;;;;;5072513;28;20097;-61
2020/12/09 02:28:01;;;;;;;24.25;11.30;;;;;;;;;;5086024;28;20047;-61
2020/12/09 02:30:27;;;;;;;22.73;11.13;;;;;;;;;;5085937;28;21232;-60
2020/12/09 02:32:53;;;;;;;25.75;11.43;;;;;;;;;;5087314;28;20044;-60
2020/12/09 02:35:19;;;;;;;22.08;11.00;;;;;;;;;;5068774;28;20047;-60
2020/12/09 02:37:44;;;;;;;20.73;10.63;;;;;;;;;;5067153;28;20032;-60
2020/12/09 02:40:11;;;;;;;23.42;11.10;;;;;;;;;;5082930;28;20040;-60
2020/12/09 02:42:37;;;;;;;22.45;11.32;;;;;;;;;;5086401;28;20071;-61
2020/12/09 02:45:03;;;;;;;22.55;10.93;;;;;;;;;;5075973;28;20036;-59
2020/12/09 02:47:29;;;;;;;20.77;10.45;;;;;;;;;;5086325;28;20462;-60
2020/12/09 02:49:55;;;;;;;24.02;10.45;;;;;;;;;;5086286;28;20089;-60
2020/12/09 02:52:21;;;;;;;20.58;9.65;;;;;;;;;;5086833;28;20063;-60
2020/12/09 02:54:47;;;;;;;23.55;11.32;;;;;;;;;;5085914;28;20519;-59
2020/12/09 02:57:13;;;;;;;22.27;9.57;;;;;;;;;;5086409;28;20092;-61
2020/12/09 02:59:39;;;;;;;20.88;10.07;;;;;;;;;;5087939;28;20051;-61
2020/12/09 03:02:05;;;;;;;23.55;10.70;;;;;;;;;;5086827;28;20046;-61
2020/12/09 03:04:31;;;;;;;22.65;10.68;;;;;;;;;;5086758;28;20048;-61
2020/12/09 03:06:57;;;;;;;22.10;10.82;;;;;;;;;;5087146;28;20044;-61
2020/12/09 03:09:23;;;;;;;21.58;10.38;;;;;;;;;;5087504;28;20036;-60
2020/12/09 03:11:49;;;;;;;23.67;10.52;;;;;;;;;;5086229;28;20504;-59
2020/12/09 03:14:15;;;;;;;22.92;10.57;;;;;;;;;;5087251;28;20445;-60
2020/12/09 03:16:41;;;;;;;23.30;10.68;;;;;;;;;;5083125;28;20035;-60
2020/12/09 03:19:07;;;;;;;22.00;10.52;;;;;;;;;;5082969;28;20483;-59
2020/12/09 03:21:33;;;;;;;22.25;10.60;;;;;;;;;;5086255;28;20043;-61
2020/12/09 03:23:59;;;;;;;21.55;10.43;;;;;;;;;;5087234;28;20036;-61
2020/12/09 03:26:26;;;;;;;22.83;10.63;;;;;;;;;;5081391;28;20036;-61
2020/12/09 03:28:52;;;;;;;25.02;11.20;;;;;;;;;;5087181;28;20044;-61
2020/12/09 03:31:18;;;;;;;26.55;11.88;;;;;;;;;;5086114;28;20071;-58
2020/12/09 03:33:44;;;;;;;21.80;10.30;;;;;;;;;;5086691;28;20787;-61
2020/12/09 03:36:10;;;;;;;22.85;10.82;;;;;;;;;;5086423;28;20380;-61
2020/12/09 03:38:36;;;;;;;19.05;10.25;;;;;;;;;;5086606;28;20036;-61
2020/12/09 03:41:02;;;;;;;20.52;9.52;;;;;;;;;;5086675;28;20048;-60
2020/12/09 03:43:28;;;;;;;20.02;10.40;;;;;;;;;;5086319;28;20044;-61
2020/12/09 03:45:54;;;;;;;22.20;10.13;;;;;;;;;;5082294;28;20036;-61
2020/12/09 03:48:21;;;;;;;22.05;11.20;;;;;;;;;;5085627;28;20032;-61
2020/12/09 03:50:47;;;;;;;20.88;11.48;;;;;;;;;;5089070;28;20067;-61
2020/12/09 03:53:13;;;;;;;21.73;11.05;;;;;;;;;;5087435;28;20425;-60
2020/12/09 03:55:39;;;;;;;25.73;12.30;;;;;;;;;;5070623;28;20032;-60
2020/12/09 03:58:04;;;;;;;24.63;12.52;;;;;;;;;;5079369;28;20088;-58
2020/12/09 04:00:31;;;;;;;27.27;13.07;;;;;;;;;;5089841;28;20036;-60
2020/12/09 04:02:57;;;;;;;20.85;11.30;;;;;;;;;;5090553;28;20048;-61
2020/12/09 04:05:23;;;;;;;25.45;12.68;;;;;;;;;;5092639;28;20036;-60
2020/12/09 04:07:49;;;;;;;24.73;12.20;;;;;;;;;;5091794;28;20036;-61
2020/12/09 04:10:15;;;;;;;26.38;12.43;;;;;;;;;;5091852;28;20044;-61
2020/12/09 04:12:42;;;;;;;25.38;11.18;;;;;;;;;;5091544;28;20048;-61
2020/12/09 04:15:08;;;;;;;21.05;10.57;;;;;;;;;;5087727;28;20135;-61
2020/12/09 04:17:34;;;;;;;18.80;10.07;;;;;;;;;;5083624;28;20394;-61
2020/12/09 04:20:00;;;;;;;21.52;11.38;;;;;;;;;;5090909;28;20051;-60
2020/12/09 04:22:26;;;;;;;25.52;11.98;;;;;;;;;;5091405;28;20047;-61
2020/12/09 04:24:52;;;;;;;24.88;12.00;;;;;;;;;;5074443;28;20120;-61
2020/12/09 04:27:18;;;;;;;22.30;11.88;;;;;;;;;;5077585;28;20450;-60
2020/12/09 04:29:43;;;;;;;21.98;11.85;;;;;;;;;;5071124;28;20119;-60
2020/12/09 04:32:10;;;;;;;27.83;12.50;;;;;;;;;;5069662;28;20119;-58
2020/12/09 04:34:36;;;;;;;22.10;11.65;;;;;;;;;;5073736;28;20047;-58
2020/12/09 04:37:02;;;;;;;21.42;11.55;;;;;;;;;;5084392;28;20066;-60
2020/12/09 04:39:28;;;;;;;27.95;13.00;;;;;;;;;;5071181;28;20041;-60
2020/12/09 04:41:54;;;;;;;29.58;14.07;;;;;;;;;;5069887;28;20036;-58
2020/12/09 04:44:20;;;;;;;24.33;12.60;;;;;;;;;;5069728;28;20483;-60
2020/12/09 04:46:47;;;;;;;29.40;13.07;;;;;;;;;;5082908;28;20038;-59
2020/12/09 04:49:14;;;;;;;31.20;13.68;;;;;;;;;;5073877;28;20067;-57
2020/12/09 04:51:40;;;;;;;30.33;13.85;;;;;;;;;;5069776;28;20499;-60
2020/12/09 04:54:09;;;;;;;29.23;13.35;;;;;;;;;;5070030;28;20080;-59
2020/12/09 04:56:38;;;;;;;30.15;14.55;;;;;;;;;;5069283;28;20050;-59
2020/12/09 04:59:14;;;;;;;29.73;14.25;;;;;;;;;;5073705;28;20040;-59
2020/12/09 05:01:40;;;;;;;;;;;;;;;;;;5069006;28;20037;-60
2020/12/09 05:04:07;;;;;;;30.13;13.20;;;;;;;;;;5069712;28;19966;-60
2020/12/09 05:06:34;;;;;;;26.85;12.63;;;;;;;;;;5069629;28;20111;-60
2020/12/09 05:09:01;;;;;;;31.13;14.80;;;;;;;;;;5076337;28;20043;-58
2020/12/09 05:11:27;;;;;;;34.08;15.77;;;;;;;;;;5089543;28;20131;-61
2020/12/09 05:13:55;;;;;;;29.48;14.10;;;;;;;;;;5089277;28;20036;-56
2020/12/09 05:16:22;;;;;;;35.40;15.57;;;;;;;;;;5084198;28;20070;-61
2020/12/09 05:18:51;;;;;;;32.38;16.70;;;;;;;;;;5081347;28;20068;-61
2020/12/09 05:21:19;;;;;;;39.22;18.85;;;;;;;;;;5088947;28;20036;-61
2020/12/09 05:23:47;;;;;;;33.80;17.52;;;;;;;;;;5089559;28;20135;-59
2020/12/09 05:26:18;;;;;;;38.28;17.85;;;;;;;;;;5089265;28;20470;-61
2020/12/09 05:28:44;;;;;;;40.75;19.63;;;;;;;;;;5088797;28;20082;-60
2020/12/09 05:31:18;;;;;;;35.00;17.42;;;;;;;;;;5088360;28;20450;-61
2020/12/09 05:33:44;;;;;;;40.47;18.35;;;;;;;;;;5089323;28;20381;-59
2020/12/09 05:36:10;;;;;;;33.83;17.00;;;;;;;;;;5089435;28;20038;-60
2020/12/09 05:38:36;;;;;;;33.25;15.90;;;;;;;;;;5089227;28;20075;-61
2020/12/09 05:41:09;;;;;;;33.25;16.65;;;;;;;;;;5072618;28;20032;-61
2020/12/09 05:43:35;;;;;;;35.05;17.67;;;;;;;;;;5068849;28;20484;-61
2020/12/09 05:46:09;;;;;;;32.78;16.30;;;;;;;;;;5075839;28;20491;-61
2020/12/09 05:48:35;;;;;;;30.95;16.35;;;;;;;;;;5080870;28;20530;-61
2020/12/09 05:51:01;;;;;;;36.40;18.33;;;;;;;;;;5088566;28;20040;-60
2020/12/09 05:53:31;;;;;;;35.92;17.85;;;;;;;;;;5089548;28;20054;-56
2020/12/09 05:56:16;;;;;;;33.25;18.55;;;;;;;;;;5088988;28;20117;-59
2020/12/09 05:58:46;;;;;;;33.85;18.38;;;;;;;;;;5087417;28;20154;-59
2020/12/09 06:01:14;;;;;;;42.35;20.25;;;;;;;;;;5075563;28;20040;-61
2020/12/09 06:03:44;;;;;;;35.22;18.73;;;;;;;;;;5067998;28;20045;-61
2020/12/09 06:06:15;;;;;;;39.88;18.77;;;;;;;;;;5070077;28;20369;-61
2020/12/09 06:08:46;;;;;;;39.97;19.13;;;;;;;;;;5068254;28;20456;-60
2020/12/09 06:11:12;;;;;;;43.97;21.25;;;;;;;;;;5068557;28;20035;-61
2020/12/09 06:13:39;;;;;;;43.40;21.20;;;;;;;;;;5067875;28;20685;-61
2020/12/09 06:16:06;;;;;;;43.13;21.60;;;;;;;;;;5082559;28;20036;-62
2020/12/09 06:18:33;;;;;;;45.33;18.83;;;;;;;;;;5083949;28;20055;-60
2020/12/09 06:20:59;;;;;;;37.35;19.92;;;;;;;;;;5078537;28;20036;-65
2020/12/09 06:23:27;;;;;;;36.95;18.33;;;;;;;;;;5075161;28;20811;-61
2020/12/09 06:25:54;;;;;;;38.30;18.65;;;;;;;;;;5078722;28;20039;-61
2020/12/09 06:28:21;;;;;;;38.20;19.48;;;;;;;;;;5076126;28;20040;-61
2020/12/09 06:30:48;;;;;;;33.47;16.85;;;;;;;;;;5076907;28;20068;-61
2020/12/09 06:33:27;;;;;;;42.28;19.90;;;;;;;;;;5077018;28;20404;-61
2020/12/09 06:36:14;;;;;;;33.30;17.08;;;;;;;;;;5075769;28;20039;-61
2020/12/09 06:38:40;;;;;;;31.35;16.38;;;;;;;;;;5072084;28;20075;-61
2020/12/09 06:41:06;;;;;;;42.80;19.15;;;;;;;;;;5078321;28;20124;-61
2020/12/09 06:43:33;;;;;;;37.85;18.90;;;;;;;;;;5081477;28;20044;-62
2020/12/09 06:45:59;;;;;;;34.42;17.48;;;;;;;;;;5078930;28;20433;-59
2020/12/09 06:48:25;;;;;;;38.60;18.38;;;;;;;;;;5079901;28;20064;-60
2020/12/09 06:50:51;;;;;;;43.45;20.08;;;;;;;;;;5070581;28;20032;-57
2020/12/09 06:53:24;;;;;;;43.10;20.75;;;;;;;;;;5077739;28;20036;-60
2020/12/09 06:55:51;;;;;;;37.67;18.10;;;;;;;;;;5076483;28;20066;-59
2020/12/09 06:58:30;;;;;;;43.03;19.70;;;;;;;;;;5075843;28;20040;-60
2020/12/09 07:00:59;;;;;;;40.60;18.92;;;;;;;;;;5072890;28;20052;-58
2020/12/09 07:03:26;;;;;;;47.10;21.35;;;;;;;;;;5075917;28;20101;-58
2020/12/09 07:05:52;;;;;;;45.97;21.25;;;;;;;;;;5075055;28;20028;-60
2020/12/09 07:08:18;;;;;;;44.03;21.08;;;;;;;;;;5076433;28;20400;-59
2020/12/09 07:10:44;;;;;;;50.00;20.90;;;;;;;;;;5086751;28;20115;-60
2020/12/09 07:13:11;;;;;;;52.42;22.80;;;;;;;;;;5082203;28;20135;-60
2020/12/09 07:15:38;;;;;;;44.75;22.40;;;;;;;;;;5083049;28;20040;-58
2020/12/09 07:18:04;;;;;;;45.13;21.92;;;;;;;;;;5087252;28;20032;-58
2020/12/09 07:20:30;;;;;;;43.58;21.27;;;;;;;;;;5071140;28;20044;-58
2020/12/09 07:22:56;;;;;;;49.67;23.30;;;;;;;;;;5066869;28;20040;-58
2020/12/09 07:25:22;;;;;;;49.25;21.98;;;;;;;;;;5069710;28;20047;-58
2020/12/09 07:27:49;;;;;;;40.80;19.73;;;;;;;;;;5087474;28;20039;-60
2020/12/09 07:30:16;;;;;;;37.75;18.75;;;;;;;;;;5090975;28;20036;-60
2020/12/09 07:32:42;;;;;;;40.85;20.13;;;;;;;;;;5091191;28;20066;-59
2020/12/09 07:35:13;;;;;;;46.85;21.35;;;;;;;;;;5091018;28;20491;-59
2020/12/09 07:37:41;;;;;;;42.50;19.92;;;;;;;;;;5092262;28;20044;-63
2020/12/09 07:40:17;;;;;;;44.42;20.40;;;;;;;;;;5091574;28;20178;-61
2020/12/09 07:42:43;;;;;;;52.47;23.58;;;;;;;;;;5091960;28;20051;-61
2020/12/09 07:45:16;;;;;;;45.42;21.50;;;;;;;;;;5086461;28;20492;-58
2020/12/09 07:47:43;;;;;;;49.00;22.65;;;;;;;;;;5083183;28;20044;-61
2020/12/09 07:50:09;;;;;;;50.55;24.33;;;;;;;;;;5091067;28;20094;-61
2020/12/09 07:52:36;;;;;;;45.53;22.27;;;;;;;;;;5080326;28;20051;-60
2020/12/09 07:55:06;;;;;;;50.97;24.52;;;;;;;;;;5071035;28;20033;-60
2020/12/09 07:57:36;;;;;;;47.90;23.25;;;;;;;;;;5073737;28;20617;-61
2020/12/09 08:00:03;;;;;;;60.92;28.00;;;;;;;;;;5083590;28;20040;-61
2020/12/09 08:02:29;;;;;;;48.60;22.45;;;;;;;;;;5089619;28;20078;-61
2020/12/09 08:05:06;;;;;;;46.20;22.67;;;;;;;;;;5090561;28;20621;-62
2020/12/09 08:07:32;;;;;;;57.78;25.38;;;;;;;;;;5090821;28;20054;-58
2020/12/09 08:13:04;;;;;;;50.60;24.85;;;;;;;;;;5070712;28;20412;-65
2020/12/09 08:15:30;;;;;;;55.53;26.70;;;;;;;;;;5071468;28;20470;-61
2020/12/09 08:17:56;;;;;;;61.80;28.58;;;;;;;;;;5090907;28;20404;-55
2020/12/09 08:20:22;;;;;;;51.38;25.48;;;;;;;;;;5087717;28;20031;-61
2020/12/09 08:22:50;;;;;;;58.90;23.75;;;;;;;;;;5090735;28;20036;-61
2020/12/09 08:25:16;;;;;;;53.03;25.33;;;;;;;;;;5090905;28;20040;-61
2020/12/09 08:27:43;;;;;;;49.83;23.25;;;;;;;;;;5089918;28;20458;-61
2020/12/09 08:30:27;;;;;;;55.88;25.33;;;;;;;;;;5089196;28;20043;-59
2020/12/09 08:33:00;;;;;;;46.85;23.98;;;;;;;;;;5089600;28;20073;-61
2020/12/09 08:35:28;;;;;;;42.88;20.70;;;;;;;;;;5088233;28;20047;-60
2020/12/09 08:37:54;;;;;;;43.88;21.10;;;;;;;;;;5089313;28;20036;-59
2020/12/09 08:40:21;;;;;;;38.42;19.40;;;;;;;;;;5089585;28;20403;-60
2020/12/09 08:42:54;;;;;;;51.13;23.35;;;;;;;;;;5089893;28;20043;-61
2020/12/09 08:45:20;;;;;;;45.47;20.70;;;;;;;;;;5081230;28;20155;-59
2020/12/09 08:47:46;;;;;;;40.88;20.85;;;;;;;;;;5090296;28;20040;-62
2020/12/09 08:50:12;;;;;;;43.75;22.15;;;;;;;;;;5088706;28;20777;-62
2020/12/09 08:52:38;;;;;;;44.50;21.92;;;;;;;;;;5089866;28;20062;-60
2020/12/09 08:55:04;;;;;;;44.70;22.77;;;;;;;;;;5090387;28;20491;-61
2020/12/09 08:57:30;;;;;;;46.47;23.48;;;;;;;;;;5088892;28;20445;-61
2020/12/09 08:59:56;;;;;;;56.63;24.88;;;;;;;;;;5084215;28;20047;-63
2020/12/09 09:02:22;;;;;;;50.05;24.55;;;;;;;;;;5088455;28;20032;-62
2020/12/09 09:04:48;;;;;;;53.13;26.30;;;;;;;;;;5089915;28;20036;-61
2020/12/09 09:07:14;;;;;;;54.50;24.33;;;;;;;;;;5089619;28;20040;-61
2020/12/09 09:09:40;;;;;;;42.10;20.52;;;;;;;;;;5079771;28;20415;-62
2020/12/09 09:12:06;;;;;;;40.45;20.90;;;;;;;;;;5089161;28;20039;-63
2020/12/09 09:14:32;;;;;;;47.85;21.98;;;;;;;;;;5088565;28;20040;-61
2020/12/09 09:17:00;;;;;;;42.33;21.08;;;;;;;;;;5085747;28;20036;-61
2020/12/09 09:19:26;;;;;;;40.05;20.27;;;;;;;;;;5081989;28;20044;-60
2020/12/09 09:21:52;;;;;;;41.40;20.10;;;;;;;;;;5068656;28;20063;-60
2020/12/09 09:24:18;;;;;;;37.90;19.85;;;;;;;;;;5068913;28;20048;-60
2020/12/09 09:26:44;;;;;;;35.45;18.52;;;;;;;;;;5075751;28;20781;-61
2020/12/09 09:29:10;;;;;;;42.38;20.20;;;;;;;;;;5088578;28;20043;-62
2020/12/09 09:31:36;;;;;;;35.20;18.95;;;;;;;;;;5068401;28;20052;-62
2020/12/09 09:34:02;;;;;;;33.55;17.92;;;;;;;;;;5068543;28;20044;-62
2020/12/09 09:36:29;;;;;;;33.47;18.38;;;;;;;;;;5068482;28;20102;-62
2020/12/09 09:38:55;;;;;;;33.83;17.52;;;;;;;;;;5068072;28;20098;-62
2020/12/09 09:41:21;;;;;;;38.10;19.05;;;;;;;;;;5068687;28;20032;-61
2020/12/09 09:43:47;;;;;;;36.38;19.08;;;;;;;;;;5068145;28;20564;-61
2020/12/09 09:46:12;;;;;;;35.17;18.20;;;;;;;;;;5081063;28;20036;-61
2020/12/09 09:48:38;;;;;;;35.03;18.70;;;;;;;;;;5087675;28;20044;-61
2020/12/09 09:51:04;;;;;;;37.22;19.63;;;;;;;;;;5073157;28;20123;-59
2020/12/09 09:53:31;;;;;;;36.88;19.30;;;;;;;;;;5078380;28;20123;-60
2020/12/09 09:55:57;;;;;;;36.60;19.10;;;;;;;;;;5087898;28;20040;-62
2020/12/09 09:58:23;;;;;;;35.28;17.38;;;;;;;;;;5088741;28;20069;-62
2020/12/09 10:00:49;;;;;;;35.40;18.88;;;;;;;;;;5074949;28;20063;-62
2020/12/09 10:03:15;;;;;;;35.17;19.08;;;;;;;;;;5080515;28;20040;-61
2020/12/09 10:05:41;;;;;;;35.35;17.90;;;;;;;;;;5088413;28;20044;-61
2020/12/09 10:08:07;;;;;;;33.05;17.67;;;;;;;;;;5087373;28;20456;-62
2020/12/09 10:10:33;;;;;;;38.00;18.60;;;;;;;;;;5088331;28;20082;-62
2020/12/09 10:12:59;;;;;;;35.58;17.90;;;;;;;;;;5087512;28;20072;-62
2020/12/09 10:15:25;;;;;;;41.60;21.05;;;;;;;;;;5083622;28;20068;-59
2020/12/09 10:17:51;;;;;;;41.30;20.75;;;;;;;;;;5088209;28;20503;-60
2020/12/09 10:20:17;;;;;;;34.10;17.85;;;;;;;;;;5087463;28;20047;-60
2020/12/09 10:22:43;;;;;;;31.42;16.08;;;;;;;;;;5087038;28;20063;-61
2020/12/09 10:31:15;;;;;;;32.17;16.25;;;;;;;;;;5066268;28;20809;-60
2020/12/09 10:33:41;;;;;;;32.08;15.75;;;;;;;;;;5087698;28;20043;-60
2020/12/09 10:36:07;;;;;;;31.85;17.70;;;;;;;;;;5087628;28;20051;-61
2020/12/09 10:38:33;;;;;;;41.47;24.25;;;;;;;;;;5080619;28;20050;-61
2020/12/09 10:41:00;;;;;;;33.92;18.25;;;;;;;;;;5085108;28;20040;-59
2020/12/09 10:43:26;;;;;;;38.78;20.95;;;;;;;;;;5067143;28;20040;-62
2020/12/09 10:45:52;;;;;;;33.45;18.42;;;;;;;;;;5074245;28;20118;-61
2020/12/09 10:48:18;;;;;;;30.60;16.67;;;;;;;;;;5086398;28;20046;-60
2020/12/09 10:50:44;;;;;;;35.30;19.45;;;;;;;;;;5085973;28;20040;-61
2020/12/09 10:53:11;;;;;;;32.78;16.30;;;;;;;;;;5087041;28;20036;-57
2020/12/09 10:55:38;;;;;;;28.27;15.20;;;;;;;;;;5071572;28;20581;-58
2020/12/09 10:58:04;;;;;;;27.00;14.18;;;;;;;;;;5073753;28;20097;-61
2020/12/09 11:00:30;;;;;;;28.50;15.77;;;;;;;;;;5073949;28;20484;-59
2020/12/09 11:02:56;;;;;;;29.60;16.17;;;;;;;;;;5065704;28;20135;-61
2020/12/09 11:05:22;;;;;;;32.03;18.02;;;;;;;;;;5066313;28;20076;-61
2020/12/09 11:07:48;;;;;;;35.58;19.80;;;;;;;;;;5064662;28;20090;-61
2020/12/09 11:10:13;;;;;;;36.70;21.17;;;;;;;;;;5080989;28;20115;-59
2020/12/09 11:12:39;;;;;;;36.15;18.98;;;;;;;;;;5086690;28;20036;-60
2020/12/09 11:15:05;;;;;;;30.95;17.73;;;;;;;;;;5083747;28;20044;-61
2020/12/09 11:17:33;;;;;;;45.95;24.92;;;;;;;;;;5084624;28;20047;-61
2020/12/09 11:19:59;;;;;;;29.88;15.98;;;;;;;;;;5086712;28;20036;-61
2020/12/09 11:22:25;;;;;;;30.73;16.63;;;;;;;;;;5085153;28;20036;-61
2020/12/09 11:24:51;;;;;;;32.10;16.40;;;;;;;;;;5086442;28;20062;-61
2020/12/09 11:27:17;;;;;;;33.38;18.48;;;;;;;;;;5085935;28;20071;-61
2020/12/09 11:29:44;;;;;;;52.58;30.33;;;;;;;;;;5081516;28;20064;-61
2020/12/09 11:32:10;;;;;;;44.22;23.13;;;;;;;;;;5074797;28;20100;-61
2020/12/09 11:34:36;;;;;;;28.15;16.73;;;;;;;;;;5084968;28;20135;-61
2020/12/09 11:37:05;;;;;;;25.90;15.07;;;;;;;;;;5086620;28;20454;-61
2020/12/09 11:39:31;;;;;;;27.15;15.00;;;;;;;;;;5086536;28;20318;-60
2020/12/09 11:41:58;;;;;;;25.00;14.18;;;;;;;;;;5069429;28;20055;-63
2020/12/09 11:44:24;;;;;;;31.92;15.02;;;;;;;;;;5065584;28;20083;-63
2020/12/09 11:46:50;;;;;;;26.63;15.30;;;;;;;;;;5076681;28;20032;-62
2020/12/09 11:49:34;;;;;;;23.60;13.50;;;;;;;;;;5084900;28;20090;-62
2020/12/09 11:52:01;;;;;;;43.97;25.75;;;;;;;;;;5061341;28;20407;-63
2020/12/09 11:54:27;;;;;;;26.48;15.32;;;;;;;;;;5075373;28;20048;-63
2020/12/09 11:56:53;;;;;;;26.40;14.70;;;;;;;;;;5080951;28;20041;-63
2020/12/09 11:59:19;;;;;;;69.60;39.42;;;;;;;;;;5083554;28;20043;-63
2020/12/09 12:01:46;;;;;;;40.35;23.85;;;;;;;;;;5085353;28;20515;-62
2020/12/09 12:04:12;;;;;;;28.17;15.77;;;;;;;;;;5086519;28;20511;-62
2020/12/09 12:06:38;;;;;;;28.70;16.25;;;;;;;;;;5086096;28;20047;-63
2020/12/09 12:09:04;;;;;;;32.95;18.48;;;;;;;;;;5087437;28;20063;-62
2020/12/09 12:11:30;;;;;;;29.38;16.27;;;;;;;;;;5081791;28;20044;-59
2020/12/09 12:13:56;;;;;;;22.17;12.52;;;;;;;;;;5070263;28;20494;-62
2020/12/09 12:16:23;;;;;;;20.15;11.75;;;;;;;;;;5076481;28;20074;-60
2020/12/09 12:18:49;;;;;;;33.25;17.73;;;;;;;;;;5090369;28;20538;-59
2020/12/09 12:21:16;;;;;;;24.58;13.82;;;;;;;;;;5086847;28;20061;-61
2020/12/09 12:23:43;;;;;;;22.67;12.27;;;;;;;;;;5070056;28;20048;-61
2020/12/09 12:26:09;;;;;;;22.42;10.80;;;;;;;;;;5073484;28;20118;-60
2020/12/09 12:28:35;;;;;;;21.10;11.30;;;;;;;;;;5089607;28;20460;-59
2020/12/09 12:31:01;;;;;;;18.77;10.30;;;;;;;;;;5089640;28;20068;-60
2020/12/09 12:33:27;;;;;;;16.48;9.93;;;;;;;;;;5089924;28;20040;-62
2020/12/09 12:35:53;;;;;;;17.27;10.50;;;;;;;;;;5089641;28;20063;-62
2020/12/09 12:38:19;;;;;;;17.73;10.75;;;;;;;;;;5085111;28;20041;-62
2020/12/09 12:40:45;;;;;;;16.90;9.68;;;;;;;;;;5089689;28;20107;-62
2020/12/09 12:43:11;;;;;;;17.50;10.27;;;;;;;;;;5077275;28;20576;-62
2020/12/09 12:45:37;;;;;;;16.30;9.10;;;;;;;;;;5073126;28;20675;-59
2020/12/09 12:48:03;;;;;;;13.23;8.35;;;;;;;;;;5078897;28;20040;-62
2020/12/09 12:50:29;;;;;;;16.92;9.45;;;;;;;;;;5088880;28;20040;-62
2020/12/09 12:52:55;;;;;;;17.35;9.73;;;;;;;;;;5086978;28;20519;-62
2020/12/09 12:55:21;;;;;;;14.70;9.38;;;;;;;;;;5089498;28;20065;-62
2020/12/09 12:57:47;;;;;;;12.57;8.07;;;;;;;;;;5083217;28;20045;-62
2020/12/09 13:00:13;;;;;;;;;;;;;;;;;;5068878;28;20036;-61
2020/12/09 13:02:39;;;;;;;15.98;9.10;;;;;;;;;;5068232;28;19921;-62
2020/12/09 13:05:05;;;;;;;19.38;8.30;;;;;;;;;;5070252;28;20440;-62
2020/12/09 13:07:31;;;;;;;;;;;;;;;;;;5075566;28;20083;-62
2020/12/09 13:09:58;;;;;;;16.37;8.53;;;;;;;;;;5070234;28;19961;-62
2020/12/09 13:12:24;;;;;;;17.25;9.75;;;;;;;;;;5068458;28;20580;-61
2020/12/09 13:14:50;;;;;;;15.05;8.73;;;;;;;;;;5084779;28;20047;-61
2020/12/09 13:17:19;;;;;;;25.60;16.35;;;;;;;;;;5079992;28;20068;-62
2020/12/09 13:19:45;;;;;;;20.30;11.05;;;;;;;;;;5078412;28;20075;-61
2020/12/09 13:22:11;;;;;;;15.60;8.73;;;;;;;;;;5088638;28;20414;-62
2020/12/09 13:24:37;;;;;;;17.63;9.82;;;;;;;;;;5076388;28;20049;-62
2020/12/09 13:27:03;;;;;;;34.30;20.25;;;;;;;;;;5077561;28;20044;-60
2020/12/09 13:29:29;;;;;;;67.40;37.97;;;;;;;;;;5088228;28;20038;-62
2020/12/09 13:31:55;;;;;;;27.50;17.50;;;;;;;;;;5087912;28;20036;-62
2020/12/09 13:34:21;;;;;;;;;;;;;;;;;;5088009;28;20028;-61
2020/12/09 13:36:47;;;;;;;15.40;9.38;;;;;;;;;;5088495;28;19928;-59
2020/12/09 13:39:13;;;;;;;17.75;10.45;;;;;;;;;;5069927;28;20047;-60
2020/12/09 13:41:39;;;;;;;17.90;10.18;;;;;;;;;;5067999;28;20084;-60
2020/12/09 13:44:05;;;;;;;18.40;10.40;;;;;;;;;;5069789;28;20075;-58
2020/12/09 13:46:31;;;;;;;17.70;9.45;;;;;;;;;;5077591;28;20039;-61
2020/12/09 13:48:57;;;;;;;22.65;12.80;;;;;;;;;;5084751;28;20044;-60
2020/12/09 13:51:24;;;;;;;25.15;13.38;;;;;;;;;;5088341;28;20495;-61
2020/12/09 13:53:50;;;;;;;25.00;13.57;;;;;;;;;;5088362;28;20089;-61
2020/12/09 13:56:17;;;;;;;22.23;12.13;;;;;;;;;;5088655;28;20040;-62
2020/12/09 13:58:43;;;;;;;26.25;14.02;;;;;;;;;;5073574;28;20047;-61
2020/12/09 14:01:12;;;;;;;29.10;13.80;;;;;;;;;;5067588;28;20028;-62
2020/12/09 14:03:38;;;;;;;26.65;14.57;;;;;;;;;;5066798;28;20393;-62
2020/12/09 14:06:04;;;;;;;26.02;14.00;;;;;;;;;;5068612;28;20042;-62
2020/12/09 14:08:30;;;;;;;26.83;14.50;;;;;;;;;;5080040;28;20543;-59
2020/12/09 14:10:56;;;;;;;27.85;14.45;;;;;;;;;;5087490;28;20054;-62
2020/12/09 14:13:22;;;;;;;24.30;13.63;;;;;;;;;;5085052;28;20568;-62
2020/12/09 14:15:51;;;;;;;35.88;19.15;;;;;;;;;;5070844;28;20047;-61
2020/12/09 14:18:17;;;;;;;38.33;18.17;;;;;;;;;;5087744;28;20040;-61
2020/12/09 14:20:44;;;;;;;31.15;16.15;;;;;;;;;;5086264;28;20075;-60
2020/12/09 14:23:10;;;;;;;30.30;16.60;;;;;;;;;;5088336;28;20040;-60
2020/12/09 14:25:36;;;;;;;31.55;15.82;;;;;;;;;;5087326;28;20050;-61
2020/12/09 14:28:02;;;;;;;29.60;15.55;;;;;;;;;;5086914;28;20047;-60